This is the latest recevied weather packets stored in our database for station/object K6LCM-13. If no packets are shown the sender has not sent any weather packets the latest 10 day(s).
| Time | Temp. | Humidity | Pressure | Rain* | Wind** | Luminosity | Snow |
|---|---|---|---|---|---|---|---|
| 1777924434 | 17.78° C | 72% | 1015.7 hPa | 0 mm | - | - | - |
| 1777923894 | 17.22° C | 72% | 1015.5 hPa | 0 mm | - | - | - |
| 1777923355 | 17.22° C | 73% | 1015.7 hPa | 0 mm | - | - | - |
| 1777922724 | 17.22° C | 76% | 1015.6 hPa | 0 mm | - | - | - |
| 1777922183 | 16.67° C | 77% | 1015.7 hPa | 0 mm | - | - | - |
| 1777921644 | 17.22° C | 75% | 1015.7 hPa | 0 mm | - | - | - |
| 1777921104 | 17.22° C | 74% | 1015.6 hPa | 0 mm | - | - | - |
| 1777920564 | 17.22° C | 73% | 1015.6 hPa | 0 mm | - | - | - |
| 1777920023 | 17.22° C | 73% | 1015.7 hPa | 0 mm | - | - | - |
| 1777919484 | 17.22° C | 74% | 1015.7 hPa | 0 mm | - | - | - |
| 1777918944 | 16.67° C | 74% | 1015.7 hPa | 0 mm | - | - | - |
| 1777918404 | 17.22° C | 72% | 1015.6 hPa | 0 mm | - | - | - |
| 1777917863 | 17.22° C | 72% | 1015.5 hPa | 0 mm | - | - | - |
| 1777917324 | 17.22° C | 72% | 1015.6 hPa | 0 mm | - | - | - |
| 1777916783 | 16.67° C | 73% | 1015.4 hPa | 0 mm | - | - | - |
| 1777916243 | 17.22° C | 73% | 1015.5 hPa | 0 mm | - | - | - |
| 1777915704 | 17.22° C | 73% | 1015.2 hPa | 0 mm | - | - | - |
| 1777915163 | 17.78° C | 70% | 1015.3 hPa | 0 mm | - | - | - |
| 1777914624 | 17.78° C | 61% | 1015.1 hPa | 0 mm | - | - | - |
| 1777914084 | 17.78° C | 62% | 1015.1 hPa | 0 mm | - | - | - |
| 1777912757 | 16.67° C | 69% | 1015 hPa | 0 mm | - | - | - |
| 1777911677 | 16.11° C | 70% | 1015 hPa | 0 mm | - | - | - |
| 1777911137 | 16.11° C | 73% | 1015 hPa | 0 mm | - | - | - |
| 1777910597 | 15.56° C | 75% | 1015.1 hPa | 0 mm | - | - | - |
| 1777910058 | 15.56° C | 72% | 1015.1 hPa | 0 mm | - | - | - |
* Rain latest hour (hover to see other rain measurements)
** Current wind speed in m/s (hover to see current wind gust speed)